Terminal Aerodrome Forecast
Issued by NWS Sioux Falls, SD

Home | Current Version | Previous Version | Text Only | Print | Product List | Glossary On
Versions: 1 2 3 4 5 6 7 8 9 10 11 12 13 14 15 16 17 18 19 20 21 22 23 24 25
000
FTUS43 KFSD 291720
TAFHON
TAF
KHON 291720Z 2918/3018 34005KT P6SM BKN015 BKN120
     FM292000 35005KT P6SM SCT015 BKN030
     FM300000 35006KT P6SM BKN250
     FM301000 34005KT 4SM BR SKC
     FM301200 34005KT 2SM BR SKC
     FM301300 35004KT 4SM BR SKC
     FM301400 VRB03KT P6SM SKC=

USA.gov is the U.S. government's official web portal to all federal, state and local government web resources and services.